sensor_id;sensor_type;location;lat;lon;timestamp;P1;durP1;ratioP1;P2;durP2;ratioP2
2029;SDS011;1020;48.854;8.830;2023-09-19T00:01:33;2.27;;;1.67;;
2029;SDS011;1020;48.854;8.830;2023-09-19T00:04:01;2.20;;;1.10;;
2029;SDS011;1020;48.854;8.830;2023-09-19T00:06:28;1.30;;;1.20;;
2029;SDS011;1020;48.854;8.830;2023-09-19T00:08:56;2.13;;;1.27;;
2029;SDS011;1020;48.854;8.830;2023-09-19T00:11:25;1.87;;;1.33;;
2029;SDS011;1020;48.854;8.830;2023-09-19T00:13:52;1.10;;;1.10;;
2029;SDS011;1020;48.854;8.830;2023-09-19T00:16:19;4.97;;;1.83;;
2029;SDS011;1020;48.854;8.830;2023-09-19T00:18:46;1.10;;;1.00;;
2029;SDS011;1020;48.854;8.830;2023-09-19T00:21:15;1.97;;;0.90;;
2029;SDS011;1020;48.854;8.830;2023-09-19T00:23:42;3.00;;;1.07;;
2029;SDS011;1020;48.854;8.830;2023-09-19T00:26:09;1.00;;;0.97;;
2029;SDS011;1020;48.854;8.830;2023-09-19T00:28:35;0.97;;;0.97;;
2029;SDS011;1020;48.854;8.830;2023-09-19T00:31:02;1.33;;;1.23;;
2029;SDS011;1020;48.854;8.830;2023-09-19T00:33:30;2.00;;;1.30;;
2029;SDS011;1020;48.854;8.830;2023-09-19T00:35:57;1.70;;;1.60;;
2029;SDS011;1020;48.854;8.830;2023-09-19T00:38:26;1.50;;;1.40;;
2029;SDS011;1020;48.854;8.830;2023-09-19T00:40:53;1.93;;;1.43;;
2029;SDS011;1020;48.854;8.830;2023-09-19T00:43:21;1.77;;;1.30;;
2029;SDS011;1020;48.854;8.830;2023-09-19T00:45:50;4.10;;;2.33;;
2029;SDS011;1020;48.854;8.830;2023-09-19T00:48:18;1.77;;;1.10;;
2029;SDS011;1020;48.854;8.830;2023-09-19T00:50:46;2.90;;;0.97;;
2029;SDS011;1020;48.854;8.830;2023-09-19T00:53:15;2.00;;;1.00;;
2029;SDS011;1020;48.854;8.830;2023-09-19T00:55:52;1.30;;;1.20;;
2029;SDS011;1020;48.854;8.830;2023-09-19T00:58:21;1.63;;;0.97;;
2029;SDS011;1020;48.854;8.830;2023-09-19T01:00:48;3.80;;;1.20;;
2029;SDS011;1020;48.854;8.830;2023-09-19T01:03:16;1.33;;;1.10;;
2029;SDS011;1020;48.854;8.830;2023-09-19T01:05:43;2.30;;;1.40;;
2029;SDS011;1020;48.854;8.830;2023-09-19T01:08:10;1.27;;;1.17;;
2029;SDS011;1020;48.854;8.830;2023-09-19T01:10:37;1.30;;;1.20;;
2029;SDS011;1020;48.854;8.830;2023-09-19T01:16:47;1.83;;;1.00;;
2029;SDS011;1020;48.854;8.830;2023-09-19T01:19:32;1.40;;;1.10;;
2029;SDS011;1020;48.854;8.830;2023-09-19T01:22:21;1.27;;;1.13;;
2029;SDS011;1020;48.854;8.830;2023-09-19T01:25:14;1.10;;;1.00;;
2029;SDS011;1020;48.854;8.830;2023-09-19T01:28:06;3.40;;;1.20;;
2029;SDS011;1020;48.854;8.830;2023-09-19T01:30:48;0.90;;;0.90;;
2029;SDS011;1020;48.854;8.830;2023-09-19T01:33:22;1.90;;;1.03;;
2029;SDS011;1020;48.854;8.830;2023-09-19T01:35:49;1.37;;;1.10;;
2029;SDS011;1020;48.854;8.830;2023-09-19T01:38:18;1.63;;;1.47;;
2029;SDS011;1020;48.854;8.830;2023-09-19T01:40:47;2.10;;;1.03;;
2029;SDS011;1020;48.854;8.830;2023-09-19T01:43:25;2.97;;;1.60;;
2029;SDS011;1020;48.854;8.830;2023-09-19T01:45:59;1.73;;;1.23;;
2029;SDS011;1020;48.854;8.830;2023-09-19T01:48:35;1.70;;;1.20;;
2029;SDS011;1020;48.854;8.830;2023-09-19T01:51:08;1.07;;;0.97;;
2029;SDS011;1020;48.854;8.830;2023-09-19T01:53:40;1.47;;;1.27;;
2029;SDS011;1020;48.854;8.830;2023-09-19T01:56:12;2.20;;;1.20;;
2029;SDS011;1020;48.854;8.830;2023-09-19T01:58:49;1.37;;;1.07;;
2029;SDS011;1020;48.854;8.830;2023-09-19T02:01:22;2.20;;;1.20;;
2029;SDS011;1020;48.854;8.830;2023-09-19T02:03:50;1.30;;;1.20;;
2029;SDS011;1020;48.854;8.830;2023-09-19T02:06:18;2.07;;;1.37;;
2029;SDS011;1020;48.854;8.830;2023-09-19T02:08:46;1.20;;;1.00;;
2029;SDS011;1020;48.854;8.830;2023-09-19T02:11:13;2.20;;;1.30;;
2029;SDS011;1020;48.854;8.830;2023-09-19T02:13:40;1.50;;;1.30;;
2029;SDS011;1020;48.854;8.830;2023-09-19T02:16:07;1.80;;;1.50;;
2029;SDS011;1020;48.854;8.830;2023-09-19T02:18:37;1.73;;;1.10;;
2029;SDS011;1020;48.854;8.830;2023-09-19T02:21:04;1.27;;;1.00;;
2029;SDS011;1020;48.854;8.830;2023-09-19T02:23:31;1.27;;;1.17;;
2029;SDS011;1020;48.854;8.830;2023-09-19T02:25:59;1.60;;;1.50;;
2029;SDS011;1020;48.854;8.830;2023-09-19T02:28:26;1.27;;;1.07;;
2029;SDS011;1020;48.854;8.830;2023-09-19T02:30:55;1.10;;;1.00;;
2029;SDS011;1020;48.854;8.830;2023-09-19T02:33:22;1.37;;;1.27;;
2029;SDS011;1020;48.854;8.830;2023-09-19T02:35:50;1.43;;;0.90;;
2029;SDS011;1020;48.854;8.830;2023-09-19T02:38:22;1.93;;;1.37;;
2029;SDS011;1020;48.854;8.830;2023-09-19T02:40:49;1.17;;;1.10;;
2029;SDS011;1020;48.854;8.830;2023-09-19T02:43:16;1.13;;;1.03;;
2029;SDS011;1020;48.854;8.830;2023-09-19T02:45:44;1.57;;;1.40;;
2029;SDS011;1020;48.854;8.830;2023-09-19T02:48:11;0.90;;;0.90;;
2029;SDS011;1020;48.854;8.830;2023-09-19T02:50:38;2.67;;;1.40;;
2029;SDS011;1020;48.854;8.830;2023-09-19T02:53:06;1.90;;;1.10;;
2029;SDS011;1020;48.854;8.830;2023-09-19T02:55:35;1.40;;;1.30;;
2029;SDS011;1020;48.854;8.830;2023-09-19T02:58:03;1.20;;;1.10;;
2029;SDS011;1020;48.854;8.830;2023-09-19T03:00:32;2.27;;;1.67;;
2029;SDS011;1020;48.854;8.830;2023-09-19T03:03:00;1.40;;;1.30;;
2029;SDS011;1020;48.854;8.830;2023-09-19T03:05:28;1.50;;;1.23;;
2029;SDS011;1020;48.854;8.830;2023-09-19T03:07:56;1.20;;;1.10;;
2029;SDS011;1020;48.854;8.830;2023-09-19T03:10:27;1.37;;;1.20;;
2029;SDS011;1020;48.854;8.830;2023-09-19T03:12:54;1.40;;;1.30;;
2029;SDS011;1020;48.854;8.830;2023-09-19T03:15:21;2.90;;;1.70;;
2029;SDS011;1020;48.854;8.830;2023-09-19T03:17:48;2.50;;;1.20;;
2029;SDS011;1020;48.854;8.830;2023-09-19T03:20:17;2.57;;;1.60;;
2029;SDS011;1020;48.854;8.830;2023-09-19T03:22:44;2.53;;;1.80;;
2029;SDS011;1020;48.854;8.830;2023-09-19T03:25:11;1.57;;;1.47;;
2029;SDS011;1020;48.854;8.830;2023-09-19T03:27:39;1.80;;;1.70;;
2029;SDS011;1020;48.854;8.830;2023-09-19T03:30:07;1.60;;;1.50;;
2029;SDS011;1020;48.854;8.830;2023-09-19T03:32:34;1.77;;;1.17;;
2029;SDS011;1020;48.854;8.830;2023-09-19T03:35:01;2.30;;;1.80;;
2029;SDS011;1020;48.854;8.830;2023-09-19T03:37:30;1.63;;;1.53;;
2029;SDS011;1020;48.854;8.830;2023-09-19T03:39:57;3.40;;;1.50;;
2029;SDS011;1020;48.854;8.830;2023-09-19T03:42:24;1.60;;;1.50;;
2029;SDS011;1020;48.854;8.830;2023-09-19T03:44:53;2.07;;;1.97;;
2029;SDS011;1020;48.854;8.830;2023-09-19T03:47:21;3.53;;;2.17;;
2029;SDS011;1020;48.854;8.830;2023-09-19T03:49:47;2.50;;;1.60;;
2029;SDS011;1020;48.854;8.830;2023-09-19T03:52:14;2.27;;;1.90;;
2029;SDS011;1020;48.854;8.830;2023-09-19T03:54:42;2.13;;;1.83;;
2029;SDS011;1020;48.854;8.830;2023-09-19T03:57:09;2.97;;;2.00;;
2029;SDS011;1020;48.854;8.830;2023-09-19T03:59:37;2.10;;;1.90;;
2029;SDS011;1020;48.854;8.830;2023-09-19T04:02:05;4.70;;;2.10;;
2029;SDS011;1020;48.854;8.830;2023-09-19T04:04:36;2.23;;;1.87;;
2029;SDS011;1020;48.854;8.830;2023-09-19T04:07:03;3.00;;;2.80;;
2029;SDS011;1020;48.854;8.830;2023-09-19T04:09:30;2.70;;;1.93;;
2029;SDS011;1020;48.854;8.830;2023-09-19T04:11:57;2.03;;;1.83;;
2029;SDS011;1020;48.854;8.830;2023-09-19T04:14:23;2.00;;;1.90;;
2029;SDS011;1020;48.854;8.830;2023-09-19T04:16:50;1.83;;;1.73;;
2029;SDS011;1020;48.854;8.830;2023-09-19T04:19:19;2.20;;;1.70;;
2029;SDS011;1020;48.854;8.830;2023-09-19T04:21:47;2.60;;;1.90;;
2029;SDS011;1020;48.854;8.830;2023-09-19T04:24:14;2.33;;;1.70;;
2029;SDS011;1020;48.854;8.830;2023-09-19T04:26:41;2.10;;;1.90;;
2029;SDS011;1020;48.854;8.830;2023-09-19T04:29:08;3.80;;;2.00;;
2029;SDS011;1020;48.854;8.830;2023-09-19T04:31:36;1.90;;;1.80;;
2029;SDS011;1020;48.854;8.830;2023-09-19T04:34:05;3.50;;;2.17;;
2029;SDS011;1020;48.854;8.830;2023-09-19T04:36:34;2.30;;;1.40;;
2029;SDS011;1020;48.854;8.830;2023-09-19T04:39:01;5.30;;;2.20;;
2029;SDS011;1020;48.854;8.830;2023-09-19T04:41:31;2.80;;;1.60;;
2029;SDS011;1020;48.854;8.830;2023-09-19T04:43:58;1.60;;;1.50;;
2029;SDS011;1020;48.854;8.830;2023-09-19T04:46:24;2.30;;;1.70;;
2029;SDS011;1020;48.854;8.830;2023-09-19T04:48:52;1.97;;;1.87;;
2029;SDS011;1020;48.854;8.830;2023-09-19T04:51:19;1.73;;;1.63;;
2029;SDS011;1020;48.854;8.830;2023-09-19T04:53:48;2.53;;;2.33;;
2029;SDS011;1020;48.854;8.830;2023-09-19T04:56:14;2.10;;;2.00;;
2029;SDS011;1020;48.854;8.830;2023-09-19T04:58:41;4.40;;;2.53;;
2029;SDS011;1020;48.854;8.830;2023-09-19T05:01:08;2.27;;;2.03;;
2029;SDS011;1020;48.854;8.830;2023-09-19T05:03:37;3.87;;;2.10;;
2029;SDS011;1020;48.854;8.830;2023-09-19T05:06:04;4.20;;;2.57;;
2029;SDS011;1020;48.854;8.830;2023-09-19T05:08:31;1.90;;;1.60;;
2029;SDS011;1020;48.854;8.830;2023-09-19T05:10:59;2.80;;;2.50;;
2029;SDS011;1020;48.854;8.830;2023-09-19T05:13:28;2.40;;;2.20;;
2029;SDS011;1020;48.854;8.830;2023-09-19T05:15:59;2.20;;;2.00;;
2029;SDS011;1020;48.854;8.830;2023-09-19T05:18:26;2.60;;;2.20;;
2029;SDS011;1020;48.854;8.830;2023-09-19T05:20:53;2.93;;;2.57;;
2029;SDS011;1020;48.854;8.830;2023-09-19T05:23:21;2.47;;;2.00;;
2029;SDS011;1020;48.854;8.830;2023-09-19T05:25:48;2.60;;;2.40;;
2029;SDS011;1020;48.854;8.830;2023-09-19T05:28:16;3.50;;;2.30;;
2029;SDS011;1020;48.854;8.830;2023-09-19T05:30:42;3.07;;;2.40;;
2029;SDS011;1020;48.854;8.830;2023-09-19T05:33:09;3.27;;;2.93;;
2029;SDS011;1020;48.854;8.830;2023-09-19T05:35:36;2.63;;;2.47;;
2029;SDS011;1020;48.854;8.830;2023-09-19T05:38:04;2.50;;;2.30;;
2029;SDS011;1020;48.854;8.830;2023-09-19T05:40:33;2.80;;;2.37;;
2029;SDS011;1020;48.854;8.830;2023-09-19T05:43:01;3.10;;;2.60;;
2029;SDS011;1020;48.854;8.830;2023-09-19T05:45:30;4.40;;;2.60;;
2029;SDS011;1020;48.854;8.830;2023-09-19T05:48:05;3.37;;;3.07;;
2029;SDS011;1020;48.854;8.830;2023-09-19T05:50:34;2.87;;;2.67;;
2029;SDS011;1020;48.854;8.830;2023-09-19T05:53:01;3.13;;;2.83;;
2029;SDS011;1020;48.854;8.830;2023-09-19T05:55:29;2.37;;;2.27;;
2029;SDS011;1020;48.854;8.830;2023-09-19T05:57:56;4.13;;;3.10;;
2029;SDS011;1020;48.854;8.830;2023-09-19T06:00:23;3.90;;;2.93;;
2029;SDS011;1020;48.854;8.830;2023-09-19T06:02:53;4.70;;;3.20;;
2029;SDS011;1020;48.854;8.830;2023-09-19T06:05:22;3.63;;;2.93;;
2029;SDS011;1020;48.854;8.830;2023-09-19T06:07:51;2.93;;;2.30;;
2029;SDS011;1020;48.854;8.830;2023-09-19T06:10:18;3.30;;;3.10;;
2029;SDS011;1020;48.854;8.830;2023-09-19T06:12:47;4.33;;;2.43;;
2029;SDS011;1020;48.854;8.830;2023-09-19T06:15:14;3.40;;;2.70;;
2029;SDS011;1020;48.854;8.830;2023-09-19T06:17:46;3.37;;;3.00;;
2029;SDS011;1020;48.854;8.830;2023-09-19T06:20:16;2.90;;;2.70;;
2029;SDS011;1020;48.854;8.830;2023-09-19T06:22:45;2.50;;;2.23;;
2029;SDS011;1020;48.854;8.830;2023-09-19T06:25:12;4.13;;;2.30;;
2029;SDS011;1020;48.854;8.830;2023-09-19T06:27:44;4.30;;;2.13;;
2029;SDS011;1020;48.854;8.830;2023-09-19T06:30:11;6.20;;;2.20;;
2029;SDS011;1020;48.854;8.830;2023-09-19T06:32:39;2.40;;;2.20;;
2029;SDS011;1020;48.854;8.830;2023-09-19T06:35:09;3.63;;;2.37;;
2029;SDS011;1020;48.854;8.830;2023-09-19T06:37:37;2.37;;;1.90;;
2029;SDS011;1020;48.854;8.830;2023-09-19T06:40:06;2.50;;;2.33;;
2029;SDS011;1020;48.854;8.830;2023-09-19T06:42:38;3.30;;;2.10;;
2029;SDS011;1020;48.854;8.830;2023-09-19T06:45:06;2.90;;;2.60;;
2029;SDS011;1020;48.854;8.830;2023-09-19T06:47:34;2.43;;;2.23;;
2029;SDS011;1020;48.854;8.830;2023-09-19T06:50:01;2.83;;;2.47;;
2029;SDS011;1020;48.854;8.830;2023-09-19T06:52:29;2.83;;;1.83;;
2029;SDS011;1020;48.854;8.830;2023-09-19T06:54:58;3.00;;;2.00;;
2029;SDS011;1020;48.854;8.830;2023-09-19T06:57:27;4.20;;;2.37;;
2029;SDS011;1020;48.854;8.830;2023-09-19T06:59:55;2.30;;;2.03;;
2029;SDS011;1020;48.854;8.830;2023-09-19T07:02:22;2.90;;;2.20;;
2029;SDS011;1020;48.854;8.830;2023-09-19T07:04:49;3.23;;;1.80;;
2029;SDS011;1020;48.854;8.830;2023-09-19T07:07:16;3.67;;;1.90;;
2029;SDS011;1020;48.854;8.830;2023-09-19T07:09:43;2.27;;;1.60;;
2029;SDS011;1020;48.854;8.830;2023-09-19T07:12:11;2.90;;;1.90;;
2029;SDS011;1020;48.854;8.830;2023-09-19T07:14:39;2.60;;;1.90;;
2029;SDS011;1020;48.854;8.830;2023-09-19T07:17:06;1.73;;;1.63;;
2029;SDS011;1020;48.854;8.830;2023-09-19T07:19:32;3.13;;;1.87;;
2029;SDS011;1020;48.854;8.830;2023-09-19T07:21:59;2.30;;;1.83;;
2029;SDS011;1020;48.854;8.830;2023-09-19T07:24:27;1.50;;;1.40;;
2029;SDS011;1020;48.854;8.830;2023-09-19T07:26:54;3.30;;;1.83;;
2029;SDS011;1020;48.854;8.830;2023-09-19T07:29:23;1.83;;;1.50;;
2029;SDS011;1020;48.854;8.830;2023-09-19T07:31:51;2.70;;;2.13;;
2029;SDS011;1020;48.854;8.830;2023-09-19T07:34:18;1.87;;;1.77;;
2029;SDS011;1020;48.854;8.830;2023-09-19T07:36:45;1.97;;;1.87;;
2029;SDS011;1020;48.854;8.830;2023-09-19T07:39:12;3.67;;;2.10;;
2029;SDS011;1020;48.854;8.830;2023-09-19T07:41:39;2.20;;;1.70;;
2029;SDS011;1020;48.854;8.830;2023-09-19T07:44:07;1.33;;;1.23;;
2029;SDS011;1020;48.854;8.830;2023-09-19T07:46:35;1.97;;;1.87;;
2029;SDS011;1020;48.854;8.830;2023-09-19T07:49:02;1.60;;;1.50;;
2029;SDS011;1020;48.854;8.830;2023-09-19T07:51:30;4.03;;;2.00;;
2029;SDS011;1020;48.854;8.830;2023-09-19T07:53:58;2.70;;;1.43;;
2029;SDS011;1020;48.854;8.830;2023-09-19T07:56:24;3.00;;;2.10;;
2029;SDS011;1020;48.854;8.830;2023-09-19T07:58:52;1.60;;;1.50;;
2029;SDS011;1020;48.854;8.830;2023-09-19T08:01:19;3.97;;;1.50;;
2029;SDS011;1020;48.854;8.830;2023-09-19T08:03:50;1.77;;;1.63;;
2029;SDS011;1020;48.854;8.830;2023-09-19T08:06:17;1.70;;;1.60;;
2029;SDS011;1020;48.854;8.830;2023-09-19T08:08:45;1.37;;;1.23;;
2029;SDS011;1020;48.854;8.830;2023-09-19T08:11:12;1.90;;;1.43;;
2029;SDS011;1020;48.854;8.830;2023-09-19T08:13:44;1.37;;;1.27;;
2029;SDS011;1020;48.854;8.830;2023-09-19T08:16:13;1.10;;;1.07;;
2029;SDS011;1020;48.854;8.830;2023-09-19T08:18:41;1.80;;;1.30;;
2029;SDS011;1020;48.854;8.830;2023-09-19T08:21:11;3.40;;;1.03;;
2029;SDS011;1020;48.854;8.830;2023-09-19T08:23:39;1.43;;;0.90;;
2029;SDS011;1020;48.854;8.830;2023-09-19T08:26:07;1.53;;;1.43;;
2029;SDS011;1020;48.854;8.830;2023-09-19T08:28:34;1.37;;;1.20;;
2029;SDS011;1020;48.854;8.830;2023-09-19T08:31:01;1.33;;;1.23;;
2029;SDS011;1020;48.854;8.830;2023-09-19T08:33:31;2.53;;;1.00;;
2029;SDS011;1020;48.854;8.830;2023-09-19T08:35:58;1.23;;;1.10;;
2029;SDS011;1020;48.854;8.830;2023-09-19T08:38:26;2.17;;;1.43;;
2029;SDS011;1020;48.854;8.830;2023-09-19T08:40:56;1.93;;;1.07;;
2029;SDS011;1020;48.854;8.830;2023-09-19T08:43:24;2.00;;;1.10;;
2029;SDS011;1020;48.854;8.830;2023-09-19T08:45:51;2.60;;;1.53;;
2029;SDS011;1020;48.854;8.830;2023-09-19T08:48:24;1.30;;;1.20;;
2029;SDS011;1020;48.854;8.830;2023-09-19T08:50:56;2.40;;;1.20;;
2029;SDS011;1020;48.854;8.830;2023-09-19T08:53:32;1.53;;;1.17;;
2029;SDS011;1020;48.854;8.830;2023-09-19T08:56:07;1.17;;;1.13;;
2029;SDS011;1020;48.854;8.830;2023-09-19T08:58:39;2.60;;;1.30;;
2029;SDS011;1020;48.854;8.830;2023-09-19T09:01:12;1.10;;;1.10;;
2029;SDS011;1020;48.854;8.830;2023-09-19T09:03:41;1.30;;;1.20;;
2029;SDS011;1020;48.854;8.830;2023-09-19T09:06:11;1.53;;;1.20;;
2029;SDS011;1020;48.854;8.830;2023-09-19T09:08:42;2.33;;;1.40;;
2029;SDS011;1020;48.854;8.830;2023-09-19T09:11:09;1.40;;;1.30;;
2029;SDS011;1020;48.854;8.830;2023-09-19T09:13:37;1.30;;;1.20;;
2029;SDS011;1020;48.854;8.830;2023-09-19T09:16:06;1.23;;;1.10;;
2029;SDS011;1020;48.854;8.830;2023-09-19T09:18:35;2.20;;;1.10;;
2029;SDS011;1020;48.854;8.830;2023-09-19T09:21:02;1.03;;;0.93;;
2029;SDS011;1020;48.854;8.830;2023-09-19T09:23:29;1.87;;;1.00;;
2029;SDS011;1020;48.854;8.830;2023-09-19T09:25:59;1.40;;;1.30;;
2029;SDS011;1020;48.854;8.830;2023-09-19T09:28:28;1.20;;;1.10;;
2029;SDS011;1020;48.854;8.830;2023-09-19T09:30:58;1.17;;;1.00;;
2029;SDS011;1020;48.854;8.830;2023-09-19T09:33:26;1.97;;;1.13;;
2029;SDS011;1020;48.854;8.830;2023-09-19T09:35:54;1.00;;;1.00;;
2029;SDS011;1020;48.854;8.830;2023-09-19T09:38:23;1.27;;;1.17;;
2029;SDS011;1020;48.854;8.830;2023-09-19T09:40:53;1.50;;;1.40;;
2029;SDS011;1020;48.854;8.830;2023-09-19T09:43:31;3.03;;;1.40;;
2029;SDS011;1020;48.854;8.830;2023-09-19T09:46:11;1.40;;;1.30;;
2029;SDS011;1020;48.854;8.830;2023-09-19T09:48:57;1.50;;;1.20;;
2029;SDS011;1020;48.854;8.830;2023-09-19T09:51:50;2.53;;;1.33;;
2029;SDS011;1020;48.854;8.830;2023-09-19T09:54:24;3.00;;;1.37;;
2029;SDS011;1020;48.854;8.830;2023-09-19T09:56:59;2.27;;;1.20;;
2029;SDS011;1020;48.854;8.830;2023-09-19T09:59:49;3.10;;;2.40;;
2029;SDS011;1020;48.854;8.830;2023-09-19T10:02:18;1.20;;;1.10;;
2029;SDS011;1020;48.854;8.830;2023-09-19T10:04:50;3.27;;;1.60;;
2029;SDS011;1020;48.854;8.830;2023-09-19T10:07:27;1.33;;;0.93;;
2029;SDS011;1020;48.854;8.830;2023-09-19T10:09:58;1.53;;;1.43;;
2029;SDS011;1020;48.854;8.830;2023-09-19T10:12:36;2.00;;;1.10;;
2029;SDS011;1020;48.854;8.830;2023-09-19T10:15:09;1.80;;;1.10;;
2029;SDS011;1020;48.854;8.830;2023-09-19T10:17:40;1.43;;;1.30;;
2029;SDS011;1020;48.854;8.830;2023-09-19T10:20:11;1.60;;;1.30;;
2029;SDS011;1020;48.854;8.830;2023-09-19T10:22:59;1.07;;;1.00;;
2029;SDS011;1020;48.854;8.830;2023-09-19T10:25:27;1.10;;;1.00;;
2029;SDS011;1020;48.854;8.830;2023-09-19T10:27:55;1.47;;;1.30;;
2029;SDS011;1020;48.854;8.830;2023-09-19T10:30:25;1.63;;;1.17;;
2029;SDS011;1020;48.854;8.830;2023-09-19T10:32:57;1.53;;;1.20;;
2029;SDS011;1020;48.854;8.830;2023-09-19T10:35:27;2.30;;;1.30;;
2029;SDS011;1020;48.854;8.830;2023-09-19T10:37:54;1.40;;;1.30;;
2029;SDS011;1020;48.854;8.830;2023-09-19T10:40:25;2.10;;;1.33;;
2029;SDS011;1020;48.854;8.830;2023-09-19T10:42:58;2.10;;;1.00;;
2029;SDS011;1020;48.854;8.830;2023-09-19T10:45:30;1.80;;;1.30;;
2029;SDS011;1020;48.854;8.830;2023-09-19T10:47:57;1.37;;;1.27;;
2029;SDS011;1020;48.854;8.830;2023-09-19T10:50:25;1.60;;;1.50;;
2029;SDS011;1020;48.854;8.830;2023-09-19T10:52:56;1.97;;;1.20;;
2029;SDS011;1020;48.854;8.830;2023-09-19T10:55:30;3.97;;;1.80;;
2029;SDS011;1020;48.854;8.830;2023-09-19T10:58:00;1.33;;;0.97;;
2029;SDS011;1020;48.854;8.830;2023-09-19T11:00:30;2.83;;;1.30;;
2029;SDS011;1020;48.854;8.830;2023-09-19T11:03:17;1.40;;;1.20;;
2029;SDS011;1020;48.854;8.830;2023-09-19T11:06:02;1.60;;;1.50;;
2029;SDS011;1020;48.854;8.830;2023-09-19T11:11:50;3.23;;;1.63;;
2029;SDS011;1020;48.854;8.830;2023-09-19T11:20:18;1.40;;;0.90;;
2029;SDS011;1020;48.854;8.830;2023-09-19T11:25:50;1.23;;;1.13;;
2029;SDS011;1020;48.854;8.830;2023-09-19T11:28:28;2.40;;;1.03;;
2029;SDS011;1020;48.854;8.830;2023-09-19T11:34:39;1.60;;;1.10;;
2029;SDS011;1020;48.854;8.830;2023-09-19T11:40:31;2.17;;;1.10;;
2029;SDS011;1020;48.854;8.830;2023-09-19T11:43:00;1.80;;;1.00;;
2029;SDS011;1020;48.854;8.830;2023-09-19T11:46:01;1.40;;;1.20;;
2029;SDS011;1020;48.854;8.830;2023-09-19T11:48:30;1.27;;;1.20;;
2029;SDS011;1020;48.854;8.830;2023-09-19T11:50:59;1.10;;;1.00;;
2029;SDS011;1020;48.854;8.830;2023-09-19T11:53:32;1.50;;;1.30;;
2029;SDS011;1020;48.854;8.830;2023-09-19T11:56:01;1.00;;;1.00;;
2029;SDS011;1020;48.854;8.830;2023-09-19T11:58:28;1.10;;;1.00;;
2029;SDS011;1020;48.854;8.830;2023-09-19T12:00:56;1.10;;;1.00;;
2029;SDS011;1020;48.854;8.830;2023-09-19T12:03:32;1.63;;;0.93;;
2029;SDS011;1020;48.854;8.830;2023-09-19T12:06:02;1.70;;;1.03;;
2029;SDS011;1020;48.854;8.830;2023-09-19T12:08:39;1.93;;;1.20;;
2029;SDS011;1020;48.854;8.830;2023-09-19T12:11:11;1.33;;;1.10;;
2029;SDS011;1020;48.854;8.830;2023-09-19T12:13:41;1.10;;;0.90;;
2029;SDS011;1020;48.854;8.830;2023-09-19T12:16:13;1.03;;;1.00;;
2029;SDS011;1020;48.854;8.830;2023-09-19T12:18:41;1.23;;;1.00;;
2029;SDS011;1020;48.854;8.830;2023-09-19T12:21:22;1.83;;;1.20;;
2029;SDS011;1020;48.854;8.830;2023-09-19T12:23:59;1.40;;;1.10;;
2029;SDS011;1020;48.854;8.830;2023-09-19T12:26:30;1.60;;;1.03;;
2029;SDS011;1020;48.854;8.830;2023-09-19T12:29:10;2.77;;;1.07;;
2029;SDS011;1020;48.854;8.830;2023-09-19T12:31:49;1.10;;;1.10;;
2029;SDS011;1020;48.854;8.830;2023-09-19T12:34:23;2.23;;;0.80;;
2029;SDS011;1020;48.854;8.830;2023-09-19T12:37:04;1.80;;;1.10;;
2029;SDS011;1020;48.854;8.830;2023-09-19T12:39:41;0.80;;;0.77;;
2029;SDS011;1020;48.854;8.830;2023-09-19T12:42:09;1.00;;;1.00;;
2029;SDS011;1020;48.854;8.830;2023-09-19T12:44:40;2.00;;;1.20;;
2029;SDS011;1020;48.854;8.830;2023-09-19T12:47:11;0.80;;;0.80;;
2029;SDS011;1020;48.854;8.830;2023-09-19T12:52:42;1.60;;;0.80;;
2029;SDS011;1020;48.854;8.830;2023-09-19T12:55:20;1.93;;;1.20;;
2029;SDS011;1020;48.854;8.830;2023-09-19T13:00:36;1.00;;;0.97;;
2029;SDS011;1020;48.854;8.830;2023-09-19T13:03:14;1.50;;;1.23;;
2029;SDS011;1020;48.854;8.830;2023-09-19T13:05:50;1.00;;;1.00;;
2029;SDS011;1020;48.854;8.830;2023-09-19T13:08:21;1.50;;;0.93;;
2029;SDS011;1020;48.854;8.830;2023-09-19T13:11:08;1.10;;;1.03;;
2029;SDS011;1020;48.854;8.830;2023-09-19T13:13:42;1.77;;;1.20;;
2029;SDS011;1020;48.854;8.830;2023-09-19T13:16:11;1.43;;;1.00;;
2029;SDS011;1020;48.854;8.830;2023-09-19T13:18:45;1.17;;;1.00;;
2029;SDS011;1020;48.854;8.830;2023-09-19T13:21:13;1.50;;;1.30;;
2029;SDS011;1020;48.854;8.830;2023-09-19T13:23:53;1.80;;;0.90;;
2029;SDS011;1020;48.854;8.830;2023-09-19T13:26:24;1.00;;;0.90;;
2029;SDS011;1020;48.854;8.830;2023-09-19T13:28:51;1.30;;;1.20;;
2029;SDS011;1020;48.854;8.830;2023-09-19T13:31:17;1.10;;;1.00;;
2029;SDS011;1020;48.854;8.830;2023-09-19T13:33:44;1.13;;;0.93;;
2029;SDS011;1020;48.854;8.830;2023-09-19T13:36:12;1.23;;;1.10;;
2029;SDS011;1020;48.854;8.830;2023-09-19T13:38:39;1.83;;;0.97;;
2029;SDS011;1020;48.854;8.830;2023-09-19T13:41:09;1.30;;;1.20;;
2029;SDS011;1020;48.854;8.830;2023-09-19T13:43:36;1.13;;;0.87;;
2029;SDS011;1020;48.854;8.830;2023-09-19T13:46:03;1.67;;;1.57;;
2029;SDS011;1020;48.854;8.830;2023-09-19T13:48:32;1.40;;;1.30;;
2029;SDS011;1020;48.854;8.830;2023-09-19T13:51:00;1.47;;;1.37;;
2029;SDS011;1020;48.854;8.830;2023-09-19T13:53:27;1.30;;;0.90;;
2029;SDS011;1020;48.854;8.830;2023-09-19T13:55:54;1.37;;;1.10;;
2029;SDS011;1020;48.854;8.830;2023-09-19T13:58:22;1.43;;;1.00;;
2029;SDS011;1020;48.854;8.830;2023-09-19T14:00:50;0.90;;;0.90;;
2029;SDS011;1020;48.854;8.830;2023-09-19T14:03:20;1.43;;;1.17;;
2029;SDS011;1020;48.854;8.830;2023-09-19T14:05:47;0.80;;;0.80;;
2029;SDS011;1020;48.854;8.830;2023-09-19T14:08:16;0.97;;;0.97;;
2029;SDS011;1020;48.854;8.830;2023-09-19T14:10:43;1.50;;;1.40;;
2029;SDS011;1020;48.854;8.830;2023-09-19T14:13:10;1.33;;;1.00;;
2029;SDS011;1020;48.854;8.830;2023-09-19T14:15:41;2.60;;;0.70;;
2029;SDS011;1020;48.854;8.830;2023-09-19T14:18:09;1.87;;;0.80;;
2029;SDS011;1020;48.854;8.830;2023-09-19T14:20:37;1.03;;;1.00;;
2029;SDS011;1020;48.854;8.830;2023-09-19T14:23:05;0.97;;;0.83;;
2029;SDS011;1020;48.854;8.830;2023-09-19T14:25:33;1.93;;;1.00;;
2029;SDS011;1020;48.854;8.830;2023-09-19T14:28:01;2.23;;;0.87;;
2029;SDS011;1020;48.854;8.830;2023-09-19T14:30:28;1.10;;;1.00;;
2029;SDS011;1020;48.854;8.830;2023-09-19T14:32:56;1.20;;;1.10;;
2029;SDS011;1020;48.854;8.830;2023-09-19T14:35:23;1.27;;;1.00;;
2029;SDS011;1020;48.854;8.830;2023-09-19T14:37:50;1.13;;;0.87;;
2029;SDS011;1020;48.854;8.830;2023-09-19T14:40:17;1.47;;;1.07;;
2029;SDS011;1020;48.854;8.830;2023-09-19T14:42:44;1.27;;;1.10;;
2029;SDS011;1020;48.854;8.830;2023-09-19T14:45:12;2.30;;;0.90;;
2029;SDS011;1020;48.854;8.830;2023-09-19T14:47:41;0.93;;;0.93;;
2029;SDS011;1020;48.854;8.830;2023-09-19T14:50:10;0.80;;;0.80;;
2029;SDS011;1020;48.854;8.830;2023-09-19T14:52:37;1.10;;;1.00;;
2029;SDS011;1020;48.854;8.830;2023-09-19T14:55:05;1.60;;;0.97;;
2029;SDS011;1020;48.854;8.830;2023-09-19T14:57:34;1.77;;;0.93;;
2029;SDS011;1020;48.854;8.830;2023-09-19T15:00:05;1.10;;;1.10;;
2029;SDS011;1020;48.854;8.830;2023-09-19T15:02:36;0.83;;;0.83;;
2029;SDS011;1020;48.854;8.830;2023-09-19T15:05:04;0.70;;;0.70;;
2029;SDS011;1020;48.854;8.830;2023-09-19T15:07:34;1.37;;;0.70;;
2029;SDS011;1020;48.854;8.830;2023-09-19T15:10:02;1.40;;;0.93;;
2029;SDS011;1020;48.854;8.830;2023-09-19T15:12:32;1.30;;;0.80;;
2029;SDS011;1020;48.854;8.830;2023-09-19T15:15:00;0.80;;;0.80;;
2029;SDS011;1020;48.854;8.830;2023-09-19T15:17:27;0.90;;;0.80;;
2029;SDS011;1020;48.854;8.830;2023-09-19T15:19:53;0.90;;;0.87;;
2029;SDS011;1020;48.854;8.830;2023-09-19T15:22:20;2.60;;;1.03;;
2029;SDS011;1020;48.854;8.830;2023-09-19T15:24:49;1.03;;;0.93;;
2029;SDS011;1020;48.854;8.830;2023-09-19T15:27:16;2.87;;;0.83;;
2029;SDS011;1020;48.854;8.830;2023-09-19T15:29:45;0.97;;;0.97;;
2029;SDS011;1020;48.854;8.830;2023-09-19T15:32:12;2.33;;;0.90;;
2029;SDS011;1020;48.854;8.830;2023-09-19T15:34:39;2.00;;;1.00;;
2029;SDS011;1020;48.854;8.830;2023-09-19T15:37:06;2.97;;;1.00;;
2029;SDS011;1020;48.854;8.830;2023-09-19T15:39:33;2.00;;;1.60;;
2029;SDS011;1020;48.854;8.830;2023-09-19T15:42:03;0.83;;;0.80;;
2029;SDS011;1020;48.854;8.830;2023-09-19T15:44:31;0.80;;;0.80;;
2029;SDS011;1020;48.854;8.830;2023-09-19T15:46:58;0.97;;;0.90;;
2029;SDS011;1020;48.854;8.830;2023-09-19T15:49:25;1.13;;;1.03;;
2029;SDS011;1020;48.854;8.830;2023-09-19T15:51:52;0.90;;;0.90;;
2029;SDS011;1020;48.854;8.830;2023-09-19T15:54:19;0.83;;;0.83;;
2029;SDS011;1020;48.854;8.830;2023-09-19T15:56:45;1.17;;;0.77;;
2029;SDS011;1020;48.854;8.830;2023-09-19T15:59:15;0.90;;;0.73;;